Time,TemperatureF,DewpointF,PressureIn,WindDirection,WindDirectionDegrees,WindSpeedMPH,WindSpeedGustMPH,Humidity,HourlyPrecipIn,Conditions,Clouds,dailyrainin,SoftwareType,DateUTC
2013-06-11 00:05:00,66.9,61.6,29.75,NNW,341,0.0,1.0,83,0.00,,,0.00,Wunderground v.1.13,2013-06-11 05:05:00,
2013-06-11 00:15:00,66.4,61.4,29.75,NNW,341,0.0,1.0,84,0.00,,,0.00,Wunderground v.1.13,2013-06-11 05:15:00,
2013-06-11 00:25:00,66.1,61.8,29.75,NNW,341,0.0,1.0,86,0.00,,,0.00,Wunderground v.1.13,2013-06-11 05:25:00,
2013-06-11 00:30:00,66.0,61.7,29.75,NNW,341,0.0,1.0,86,0.00,,,0.00,Wunderground v.1.13,2013-06-11 05:30:00,
2013-06-11 00:40:00,65.5,61.5,29.75,NNW,341,0.0,0.0,87,0.00,,,0.00,Wunderground v.1.13,2013-06-11 05:40:00,
2013-06-11 00:45:00,65.3,61.3,29.75,NNW,341,0.0,0.0,87,0.00,,,0.00,Wunderground v.1.13,2013-06-11 05:45:00,
2013-06-11 00:55:00,64.8,61.2,29.75,NNW,341,0.0,0.0,88,0.00,,,0.00,Wunderground v.1.13,2013-06-11 05:55:00,
2013-06-11 01:00:00,64.7,61.4,29.76,NNW,341,0.0,0.0,89,0.00,,,0.00,Wunderground v.1.13,2013-06-11 06:00:00,
2013-06-11 01:05:00,64.5,61.2,29.76,NNW,341,0.0,0.0,89,0.00,,,0.00,Wunderground v.1.13,2013-06-11 06:05:00,
2013-06-11 01:15:00,64.2,61.2,29.76,NNW,341,0.0,0.0,90,0.00,,,0.00,Wunderground v.1.13,2013-06-11 06:15:00,
2013-06-11 01:20:00,64.0,61.0,29.76,NNW,341,0.0,0.0,90,0.00,,,0.00,Wunderground v.1.13,2013-06-11 06:20:00,
2013-06-11 01:30:00,63.9,61.2,29.76,NNW,341,0.0,0.0,91,0.00,,,0.00,Wunderground v.1.13,2013-06-11 06:30:00,
2013-06-11 01:40:00,63.5,60.8,29.76,NNW,341,0.0,0.0,91,0.00,,,0.00,Wunderground v.1.13,2013-06-11 06:40:00,
2013-06-11 01:50:00,63.2,60.5,29.76,NNW,341,0.0,0.0,91,0.00,,,0.00,Wunderground v.1.13,2013-06-11 06:50:00,
2013-06-11 02:00:00,62.9,60.5,29.76,NNW,341,0.0,0.0,92,0.00,,,0.00,Wunderground v.1.13,2013-06-11 07:00:00,
2013-06-11 02:05:00,62.7,60.3,29.76,NNW,341,0.0,0.0,92,0.00,,,0.00,Wunderground v.1.13,2013-06-11 07:05:00,
2013-06-11 02:15:00,62.6,60.2,29.76,NNW,341,0.0,0.0,92,0.00,,,0.00,Wunderground v.1.13,2013-06-11 07:15:00,
2013-06-11 02:20:00,62.4,60.0,29.76,NNW,341,0.0,0.0,92,0.00,,,0.00,Wunderground v.1.13,2013-06-11 07:20:00,
2013-06-11 02:30:00,62.3,60.2,29.76,NNW,341,0.0,0.0,93,0.00,,,0.00,Wunderground v.1.13,2013-06-11 07:30:00,
2013-06-11 02:40:00,62.1,60.1,29.76,NNW,341,0.0,0.0,93,0.00,,,0.00,Wunderground v.1.13,2013-06-11 07:40:00,
2013-06-11 02:50:00,61.8,59.8,29.76,NNW,341,0.0,0.0,93,0.00,,,0.00,Wunderground v.1.13,2013-06-11 07:50:00,
2013-06-11 03:00:00,61.5,59.5,29.77,NNW,341,0.0,0.0,93,0.00,,,0.00,Wunderground v.1.13,2013-06-11 08:00:00,
2013-06-11 03:05:00,61.3,59.3,29.77,NNW,341,0.0,0.0,93,0.00,,,0.00,Wunderground v.1.13,2013-06-11 08:05:00,
2013-06-11 03:15:00,61.2,59.5,29.77,NNW,341,0.0,0.0,94,0.00,,,0.00,Wunderground v.1.13,2013-06-11 08:15:00,
2013-06-11 03:25:00,60.9,59.2,29.77,NNW,341,0.0,0.0,94,0.00,,,0.00,Wunderground v.1.13,2013-06-11 08:25:00,
2013-06-11 03:35:00,60.7,59.0,29.77,NNW,341,0.0,0.0,94,0.00,,,0.00,Wunderground v.1.13,2013-06-11 08:35:00,
2013-06-11 03:45:00,60.9,59.5,29.77,NNW,341,0.0,0.0,95,0.00,,,0.00,Wunderground v.1.13,2013-06-11 08:45:00,
2013-06-11 03:55:00,61.0,59.6,29.77,NNW,341,0.0,0.0,95,0.00,,,0.00,Wunderground v.1.13,2013-06-11 08:55:00,
2013-06-11 04:00:00,61.0,59.6,29.78,NNW,341,0.0,0.0,95,0.00,,,0.00,Wunderground v.1.13,2013-06-11 09:00:00,
2013-06-11 04:05:00,61.0,59.6,29.78,NNW,341,0.0,0.0,95,0.00,,,0.00,Wunderground v.1.13,2013-06-11 09:05:00,
2013-06-11 04:15:00,61.0,59.6,29.78,NNW,341,0.0,0.0,95,0.00,,,0.00,Wunderground v.1.13,2013-06-11 09:15:00,
2013-06-11 04:25:00,61.0,59.6,29.78,NNW,341,0.0,0.0,95,0.00,,,0.00,Wunderground v.1.13,2013-06-11 09:25:00,
2013-06-11 04:35:00,60.9,59.5,29.78,NNW,341,0.0,0.0,95,0.00,,,0.00,Wunderground v.1.13,2013-06-11 09:35:00,
2013-06-11 04:45:00,60.7,59.3,29.78,NNW,341,0.0,0.0,95,0.00,,,0.00,Wunderground v.1.13,2013-06-11 09:45:00,
2013-06-11 04:55:00,60.5,59.1,29.78,NNW,341,0.0,0.0,95,0.00,,,0.00,Wunderground v.1.13,2013-06-11 09:55:00,
2013-06-11 05:05:00,60.4,59.0,29.78,NNW,341,0.0,0.0,95,0.00,,,0.00,Wunderground v.1.13,2013-06-11 10:05:00,
2013-06-11 05:15:00,60.2,59.1,29.78,NNW,341,0.0,0.0,96,0.00,,,0.00,Wunderground v.1.13,2013-06-11 10:15:00,
2013-06-11 05:25:00,60.1,59.0,29.78,NNW,341,0.0,0.0,96,0.00,,,0.00,Wunderground v.1.13,2013-06-11 10:25:00,
2013-06-11 05:30:00,60.1,59.0,29.79,NNW,341,0.0,0.0,96,0.00,,,0.00,Wunderground v.1.13,2013-06-11 10:30:00,
2013-06-11 05:35:00,59.9,58.8,29.79,NNW,341,0.0,0.0,96,0.00,,,0.00,Wunderground v.1.13,2013-06-11 10:35:00,
2013-06-11 05:45:00,59.8,58.7,29.78,NNW,341,0.0,0.0,96,0.00,,,0.00,Wunderground v.1.13,2013-06-11 10:45:00,
2013-06-11 05:50:00,59.6,58.5,29.78,NNW,341,0.0,0.0,96,0.00,,,0.00,Wunderground v.1.13,2013-06-11 10:50:00,
2013-06-11 05:55:00,59.8,58.7,29.78,NNW,341,0.0,0.0,96,0.00,,,0.00,Wunderground v.1.13,2013-06-11 10:55:00,
2013-06-11 06:05:00,59.8,58.7,29.79,NNW,341,0.0,0.0,96,0.00,,,0.00,Wunderground v.1.13,2013-06-11 11:05:00,
2013-06-11 06:15:00,60.1,59.0,29.79,NNW,341,0.0,0.0,96,0.00,,,0.00,Wunderground v.1.13,2013-06-11 11:15:00,
2013-06-11 06:25:00,60.5,59.4,29.79,NNW,341,0.0,0.0,96,0.00,,,0.00,Wunderground v.1.13,2013-06-11 11:25:00,
2013-06-11 06:35:00,61.2,60.1,29.80,NNW,341,0.0,0.0,96,0.00,,,0.00,Wunderground v.1.13,2013-06-11 11:35:00,
2013-06-11 06:45:00,61.5,60.3,29.80,NNW,341,0.0,0.0,96,0.00,,,0.00,Wunderground v.1.13,2013-06-11 11:45:00,
2013-06-11 06:55:00,62.0,60.8,29.80,NNW,341,0.0,0.0,96,0.00,,,0.00,Wunderground v.1.13,2013-06-11 11:55:00,
2013-06-11 07:00:00,62.3,61.1,29.80,NNW,341,0.0,0.0,96,0.00,,,0.00,Wunderground v.1.13,2013-06-11 12:00:00,
2013-06-11 07:05:00,62.6,61.4,29.80,NNW,341,1.0,1.0,96,0.00,,,0.00,Wunderground v.1.13,2013-06-11 12:05:00,
2013-06-11 07:15:00,63.2,61.4,29.81,NNW,341,0.0,0.0,94,0.00,,,0.00,Wunderground v.1.13,2013-06-11 12:15:00,
2013-06-11 07:25:00,64.0,61.6,29.81,NNW,333,0.0,0.0,92,0.00,,,0.00,Wunderground v.1.13,2013-06-11 12:25:00,
2013-06-11 07:35:00,64.7,61.4,29.81,NW,325,0.0,5.0,89,0.00,,,0.00,Wunderground v.1.13,2013-06-11 12:35:00,
2013-06-11 07:40:00,65.2,61.6,29.81,NW,324,0.0,5.0,88,0.00,,,0.00,Wunderground v.1.13,2013-06-11 12:40:00,
2013-06-11 07:50:00,66.4,61.8,29.82,NW,321,0.0,5.0,85,0.00,,,0.00,Wunderground v.1.13,2013-06-11 12:50:00,
2013-06-11 07:55:00,67.1,61.8,29.82,WNW,296,0.0,5.0,83,0.00,,,0.00,Wunderground v.1.13,2013-06-11 12:55:00,
2013-06-11 08:00:00,67.8,61.8,29.81,WNW,296,0.0,5.0,81,0.00,,,0.00,Wunderground v.1.13,2013-06-11 13:00:00,
2013-06-11 08:05:00,68.3,61.5,29.81,WNW,296,0.0,5.0,79,0.00,,,0.00,Wunderground v.1.13,2013-06-11 13:05:00,
2013-06-11 08:15:00,69.3,61.8,29.81,WNW,296,0.0,5.0,77,0.00,,,0.00,Wunderground v.1.13,2013-06-11 13:15:00,
2013-06-11 08:25:00,70.6,61.5,29.81,WNW,295,0.0,5.0,73,0.00,,,0.00,Wunderground v.1.13,2013-06-11 13:25:00,
2013-06-11 08:35:00,71.5,62.0,29.82,WNW,301,2.0,2.0,72,0.00,,,0.00,Wunderground v.1.13,2013-06-11 13:35:00,
2013-06-11 08:45:00,72.5,62.2,29.81,WNW,301,0.0,7.0,70,0.00,,,0.00,Wunderground v.1.13,2013-06-11 13:45:00,
2013-06-11 08:50:00,73.0,61.4,29.81,WNW,285,1.0,7.0,67,0.00,,,0.00,Wunderground v.1.13,2013-06-11 13:50:00,
2013-06-11 08:55:00,73.2,61.2,29.81,WNW,283,3.0,7.0,66,0.00,,,0.00,Wunderground v.1.13,2013-06-11 13:55:00,
2013-06-11 09:00:00,73.5,61.4,29.81,West,281,3.0,3.0,66,0.00,,,0.00,Wunderground v.1.13,2013-06-11 14:00:00,
2013-06-11 09:05:00,73.9,61.0,29.81,NW,314,3.0,8.0,64,0.00,,,0.00,Wunderground v.1.13,2013-06-11 14:05:00,
2013-06-11 09:15:00,74.6,61.6,29.80,WNW,303,2.0,2.0,64,0.00,,,0.00,Wunderground v.1.13,2013-06-11 14:15:00,
2013-06-11 09:25:00,75.1,60.7,29.80,WNW,300,3.0,8.0,61,0.00,,,0.00,Wunderground v.1.13,2013-06-11 14:25:00,
2013-06-11 09:35:00,75.1,61.2,29.80,WNW,287,3.0,3.0,62,0.00,,,0.00,Wunderground v.1.13,2013-06-11 14:35:00,
2013-06-11 09:45:00,75.4,60.5,29.79,WSW,250,3.0,3.0,60,0.00,,,0.00,Wunderground v.1.13,2013-06-11 14:45:00,
2013-06-11 09:50:00,75.6,60.7,29.79,WNW,296,3.0,3.0,60,0.00,,,0.00,Wunderground v.1.13,2013-06-11 14:50:00,
2013-06-11 10:00:00,76.0,61.6,29.78,WNW,302,2.0,9.0,61,0.00,,,0.00,Wunderground v.1.13,2013-06-11 15:00:00,
2013-06-11 10:05:00,76.3,60.4,29.78,WNW,300,3.0,3.0,58,0.00,,,0.00,Wunderground v.1.13,2013-06-11 15:05:00,
2013-06-11 10:15:00,76.5,60.6,29.78,NW,311,3.0,3.0,58,0.00,,,0.00,Wunderground v.1.13,2013-06-11 15:15:00,
2013-06-11 10:25:00,76.7,60.8,29.78,NW,309,3.0,3.0,58,0.00,,,0.00,Wunderground v.1.13,2013-06-11 15:25:00,
2013-06-11 10:35:00,77.2,60.8,29.79,WNW,294,1.0,8.0,57,0.00,,,0.00,Wunderground v.1.13,2013-06-11 15:35:00,
2013-06-11 10:45:00,76.7,60.8,29.79,WNW,293,1.0,8.0,58,0.00,,,0.00,Wunderground v.1.13,2013-06-11 15:45:00,
2013-06-11 10:50:00,77.2,61.3,29.79,WNW,290,2.0,8.0,58,0.00,,,0.00,Wunderground v.1.13,2013-06-11 15:50:00,
2013-06-11 11:00:00,77.6,61.7,29.79,WNW,289,1.0,8.0,58,0.00,,,0.00,Wunderground v.1.13,2013-06-11 16:00:00,
2013-06-11 11:05:00,77.4,61.5,29.79,WNW,286,1.0,1.0,58,0.00,,,0.00,Wunderground v.1.13,2013-06-11 16:05:00,
2013-06-11 11:15:00,77.7,61.7,29.80,WNW,297,2.0,2.0,58,0.00,,,0.00,Wunderground v.1.13,2013-06-11 16:15:00,
2013-06-11 11:25:00,78.1,61.6,29.80,WNW,293,1.0,8.0,57,0.00,,,0.00,Wunderground v.1.13,2013-06-11 16:25:00,
2013-06-11 11:35:00,78.8,60.7,29.80,NNW,342,2.0,2.0,54,0.00,,,0.00,Wunderground v.1.13,2013-06-11 16:35:00,
2013-06-11 11:45:00,77.9,60.4,29.79,NW,312,2.0,2.0,55,0.00,,,0.00,Wunderground v.1.13,2013-06-11 16:45:00,
2013-06-11 11:50:00,77.9,61.4,29.79,NW,310,3.0,3.0,57,0.00,,,0.00,Wunderground v.1.13,2013-06-11 16:50:00,
2013-06-11 12:00:00,78.3,60.8,29.78,NW,306,2.0,2.0,55,0.00,,,0.00,Wunderground v.1.13,2013-06-11 17:00:00,
2013-06-11 12:05:00,78.5,61.5,29.78,South,180,2.0,2.0,56,0.00,,,0.00,Wunderground v.1.13,2013-06-11 17:05:00,
2013-06-11 12:15:00,79.0,60.4,29.78,SW,225,1.0,6.0,53,0.00,,,0.00,Wunderground v.1.13,2013-06-11 17:15:00,
2013-06-11 12:25:00,79.4,60.8,29.78,WSW,248,2.0,2.0,53,0.00,,,0.00,Wunderground v.1.13,2013-06-11 17:25:00,
2013-06-11 12:35:00,79.0,60.9,29.78,West,281,2.0,2.0,54,0.00,,,0.00,Wunderground v.1.13,2013-06-11 17:35:00,
2013-06-11 12:45:00,78.8,60.7,29.77,WNW,284,1.0,1.0,54,0.00,,,0.00,Wunderground v.1.13,2013-06-11 17:45:00,
2013-06-11 12:55:00,79.0,60.9,29.77,WNW,284,0.0,8.0,54,0.00,,,0.00,Wunderground v.1.13,2013-06-11 17:55:00,
2013-06-11 13:05:00,79.8,61.1,29.78,South,180,1.0,1.0,53,0.00,,,0.00,Wunderground v.1.13,2013-06-11 18:05:00,
2013-06-11 13:15:00,80.5,61.8,29.75,South,190,1.0,1.0,53,0.00,,,0.00,Wunderground v.1.13,2013-06-11 18:15:00,
2013-06-11 13:25:00,80.1,61.4,29.75,SSE,157,2.0,9.0,53,0.00,,,0.00,Wunderground v.1.13,2013-06-11 18:25:00,
2013-06-11 13:35:00,80.3,61.6,29.75,SW,231,2.0,2.0,53,0.00,,,0.00,Wunderground v.1.13,2013-06-11 18:35:00,
2013-06-11 13:40:00,80.5,62.8,29.75,SW,223,2.0,2.0,55,0.00,,,0.00,Wunderground v.1.13,2013-06-11 18:40:00,
2013-06-11 13:50:00,80.9,61.6,29.76,SSW,192,2.0,2.0,52,0.00,,,0.00,Wunderground v.1.13,2013-06-11 18:50:00,
2013-06-11 13:55:00,80.9,62.7,29.76,South,186,2.0,2.0,54,0.00,,,0.00,Wunderground v.1.13,2013-06-11 18:55:00,
2013-06-11 14:00:00,80.9,61.6,29.77,South,186,1.0,1.0,52,0.00,,,0.00,Wunderground v.1.13,2013-06-11 19:00:00,
2013-06-11 14:05:00,81.2,61.9,29.77,SSW,200,0.0,9.0,52,0.00,,,0.00,Wunderground v.1.13,2013-06-11 19:05:00,
2013-06-11 14:15:00,81.8,60.2,29.77,WSW,247,1.0,1.0,48,0.00,,,0.00,Wunderground v.1.13,2013-06-11 19:15:00,
2013-06-11 14:25:00,81.8,60.8,29.77,West,281,0.0,9.0,49,0.00,,,0.00,Wunderground v.1.13,2013-06-11 19:25:00,
2013-06-11 14:35:00,81.2,60.2,29.76,SW,223,0.0,8.0,49,0.00,,,0.00,Wunderground v.1.13,2013-06-11 19:35:00,
2013-06-11 14:45:00,81.1,60.7,29.76,SW,225,0.0,8.0,50,0.00,,,0.00,Wunderground v.1.13,2013-06-11 19:45:00,
2013-06-11 14:55:00,81.1,60.7,29.76,SSW,201,0.0,8.0,50,0.00,,,0.00,Wunderground v.1.13,2013-06-11 19:55:00,
2013-06-11 15:00:00,81.1,61.3,29.75,SSW,201,0.0,8.0,51,0.00,,,0.00,Wunderground v.1.13,2013-06-11 20:00:00,
2013-06-11 15:05:00,80.7,60.3,29.75,SSW,200,0.0,5.0,50,0.00,,,0.00,Wunderground v.1.13,2013-06-11 20:05:00,
2013-06-11 15:15:00,79.9,60.7,29.75,SSW,198,0.0,5.0,52,0.00,,,0.00,Wunderground v.1.13,2013-06-11 20:15:00,
2013-06-11 15:25:00,79.2,60.6,29.75,SSW,194,0.0,5.0,53,0.00,,,0.00,Wunderground v.1.13,2013-06-11 20:25:00,
2013-06-11 15:35:00,79.6,61.0,29.72,SSW,194,0.0,7.0,53,0.00,,,0.00,Wunderground v.1.13,2013-06-11 20:35:00,
2013-06-11 15:40:00,79.9,61.8,29.72,SE,132,0.0,7.0,54,0.00,,,0.00,Wunderground v.1.13,2013-06-11 20:40:00,
2013-06-11 15:45:00,80.3,62.7,29.70,SE,134,0.0,7.0,55,0.00,,,0.00,Wunderground v.1.13,2013-06-11 20:45:00,
2013-06-11 15:50:00,80.9,62.2,29.70,South,182,1.0,1.0,53,0.00,,,0.00,Wunderground v.1.13,2013-06-11 20:50:00,
2013-06-11 15:55:00,81.6,61.7,29.70,South,188,1.0,1.0,51,0.00,,,0.00,Wunderground v.1.13,2013-06-11 20:55:00,
2013-06-11 16:00:00,82.4,62.5,29.70,SSE,157,1.0,7.0,51,0.00,,,0.00,Wunderground v.1.13,2013-06-11 21:00:00,
2013-06-11 16:05:00,82.8,61.7,29.70,SE,134,2.0,4.0,49,0.00,,,0.00,Wunderground v.1.13,2013-06-11 21:05:00,
2013-06-11 16:15:00,83.0,61.3,29.71,SW,219,1.0,9.0,48,0.00,,,0.00,Wunderground v.1.13,2013-06-11 21:15:00,
2013-06-11 16:25:00,82.8,61.1,29.71,South,183,2.0,6.0,48,0.00,,,0.00,Wunderground v.1.13,2013-06-11 21:25:00,
2013-06-11 16:35:00,83.0,61.3,29.72,SSE,155,2.0,2.0,48,0.00,,,0.00,Wunderground v.1.13,2013-06-11 21:35:00,
2013-06-11 16:45:00,83.6,61.2,29.73,West,271,2.0,9.0,47,0.00,,,0.00,Wunderground v.1.13,2013-06-11 21:45:00,
2013-06-11 16:50:00,83.8,61.4,29.73,West,261,2.0,2.0,47,0.00,,,0.00,Wunderground v.1.13,2013-06-11 21:50:00,
2013-06-11 17:00:00,83.4,60.4,29.73,West,275,2.0,2.0,46,0.00,,,0.00,Wunderground v.1.13,2013-06-11 22:00:00,
2013-06-11 17:05:00,83.6,60.0,29.73,WSW,254,1.0,1.0,45,0.00,,,0.00,Wunderground v.1.13,2013-06-11 22:05:00,
2013-06-11 17:15:00,84.1,60.5,29.72,WNW,283,1.0,12.0,45,0.00,,,0.00,Wunderground v.1.13,2013-06-11 22:15:00,
2013-06-11 17:20:00,84.3,60.6,29.72,WSW,242,0.0,12.0,45,0.00,,,0.00,Wunderground v.1.13,2013-06-11 22:20:00,
2013-06-11 17:30:00,84.0,61.6,29.72,WSW,243,1.0,1.0,47,0.00,,,0.00,Wunderground v.1.13,2013-06-11 22:30:00,
2013-06-11 17:35:00,84.0,61.6,29.72,WSW,243,0.0,11.0,47,0.00,,,0.00,Wunderground v.1.13,2013-06-11 22:35:00,
2013-06-11 17:45:00,83.2,61.5,29.72,WNW,283,2.0,2.0,48,0.00,,,0.00,Wunderground v.1.13,2013-06-11 22:45:00,
2013-06-11 17:55:00,82.0,61.5,29.72,WNW,283,0.0,11.0,50,0.00,,,0.00,Wunderground v.1.13,2013-06-11 22:55:00,
2013-06-11 18:00:00,81.6,61.2,29.71,WNW,283,0.0,11.0,50,0.00,,,0.00,Wunderground v.1.13,2013-06-11 23:00:00,
2013-06-11 18:05:00,81.6,61.7,29.71,WNW,288,0.0,9.0,51,0.00,,,0.00,Wunderground v.1.13,2013-06-11 23:05:00,
2013-06-11 18:15:00,81.2,61.9,29.72,WNW,288,1.0,9.0,52,0.00,,,0.00,Wunderground v.1.13,2013-06-11 23:15:00,
2013-06-11 18:25:00,80.9,62.2,29.72,WNW,284,2.0,9.0,53,0.00,,,0.00,Wunderground v.1.13,2013-06-11 23:25:00,
2013-06-11 18:30:00,80.7,62.0,29.72,West,268,2.0,2.0,53,0.00,,,0.00,Wunderground v.1.13,2013-06-11 23:30:00,
2013-06-11 18:35:00,80.5,61.8,29.72,West,268,1.0,1.0,53,0.00,,,0.00,Wunderground v.1.13,2013-06-11 23:35:00,
2013-06-11 18:45:00,80.1,62.0,29.73,West,268,0.0,7.0,54,0.00,,,0.00,Wunderground v.1.13,2013-06-11 23:45:00,
2013-06-11 18:50:00,79.8,62.7,29.73,West,268,0.0,7.0,56,0.00,,,0.00,Wunderground v.1.13,2013-06-11 23:50:00,
2013-06-11 19:00:00,79.2,62.7,29.72,West,268,0.0,7.0,57,0.00,,,0.00,Wunderground v.1.13,2013-06-12 00:00:00,
2013-06-11 19:05:00,79.0,62.5,29.72,West,268,0.0,8.0,57,0.00,,,0.00,Wunderground v.1.13,2013-06-12 00:05:00,
2013-06-11 19:15:00,78.6,62.1,29.72,West,268,0.0,8.0,57,0.00,,,0.00,Wunderground v.1.13,2013-06-12 00:15:00,
2013-06-11 19:20:00,78.5,62.0,29.72,West,268,0.0,8.0,57,0.00,,,0.00,Wunderground v.1.13,2013-06-12 00:20:00,
2013-06-11 19:30:00,78.3,62.8,29.73,West,268,0.0,8.0,59,0.00,,,0.00,Wunderground v.1.13,2013-06-12 00:30:00,
2013-06-11 19:35:00,78.1,62.6,29.73,West,268,0.0,1.0,59,0.00,,,0.00,Wunderground v.1.13,2013-06-12 00:35:00,
2013-06-11 19:45:00,77.4,62.4,29.73,West,268,0.0,1.0,60,0.00,,,0.00,Wunderground v.1.13,2013-06-12 00:45:00,
2013-06-11 19:50:00,77.2,62.2,29.73,West,268,0.0,1.0,60,0.00,,,0.00,Wunderground v.1.13,2013-06-12 00:50:00,
2013-06-11 19:55:00,77.2,62.7,29.73,West,268,0.0,1.0,61,0.00,,,0.00,Wunderground v.1.13,2013-06-12 00:55:00,
2013-06-11 20:05:00,76.8,64.6,29.73,West,268,0.0,1.0,66,0.00,,,0.00,Wunderground v.1.13,2013-06-12 01:05:00,
2013-06-11 20:15:00,76.1,63.9,29.75,West,268,0.0,1.0,66,0.00,,,0.00,Wunderground v.1.13,2013-06-12 01:15:00,
2013-06-11 20:20:00,76.0,63.8,29.75,West,268,0.0,1.0,66,0.00,,,0.00,Wunderground v.1.13,2013-06-12 01:20:00,
2013-06-11 20:25:00,75.8,62.8,29.75,West,268,0.0,1.0,64,0.00,,,0.00,Wunderground v.1.13,2013-06-12 01:25:00,
2013-06-11 20:35:00,75.6,63.0,29.72,West,268,0.0,3.0,65,0.00,,,0.00,Wunderground v.1.13,2013-06-12 01:35:00,
2013-06-11 20:40:00,75.4,63.2,29.72,West,268,0.0,3.0,66,0.00,,,0.00,Wunderground v.1.13,2013-06-12 01:40:00,
2013-06-11 20:45:00,75.1,63.8,29.73,West,268,0.0,3.0,68,0.00,,,0.00,Wunderground v.1.13,2013-06-12 01:45:00,
2013-06-11 20:55:00,74.9,63.2,29.73,West,268,0.0,3.0,67,0.00,,,0.00,Wunderground v.1.13,2013-06-12 01:55:00,
2013-06-11 21:00:00,74.7,63.9,29.72,West,268,0.0,3.0,69,0.00,,,0.00,Wunderground v.1.13,2013-06-12 02:00:00,
2013-06-11 21:05:00,74.6,63.8,29.72,West,268,0.0,1.0,69,0.00,,,0.00,Wunderground v.1.13,2013-06-12 02:05:00,
2013-06-11 21:15:00,74.4,64.0,29.73,West,268,0.0,1.0,70,0.00,,,0.00,Wunderground v.1.13,2013-06-12 02:15:00,
2013-06-11 21:25:00,74.0,64.0,29.73,SW,216,0.0,1.0,71,0.00,,,0.00,Wunderground v.1.13,2013-06-12 02:25:00,
2013-06-11 21:30:00,73.9,63.9,29.72,SW,216,0.0,1.0,71,0.00,,,0.00,Wunderground v.1.13,2013-06-12 02:30:00,
2013-06-11 21:40:00,73.7,63.7,29.72,SW,216,0.0,1.0,71,0.00,,,0.00,Wunderground v.1.13,2013-06-12 02:40:00,
2013-06-11 21:45:00,73.5,63.5,29.73,SW,216,0.0,1.0,71,0.00,,,0.00,Wunderground v.1.13,2013-06-12 02:45:00,
2013-06-11 21:55:00,73.3,63.7,29.73,SW,216,0.0,1.0,72,0.00,,,0.00,Wunderground v.1.13,2013-06-12 02:55:00,
2013-06-11 22:00:00,73.3,63.7,29.73,SW,216,0.0,1.0,72,0.00,,,0.00,Wunderground v.1.13,2013-06-12 03:00:00,
2013-06-11 22:05:00,73.2,64.0,29.73,SW,216,0.0,5.0,73,0.00,,,0.00,Wunderground v.1.13,2013-06-12 03:05:00,
2013-06-11 22:15:00,73.2,64.4,29.74,NNW,347,0.0,5.0,74,0.00,,,0.00,Wunderground v.1.13,2013-06-12 03:15:00,
2013-06-11 22:25:00,73.2,64.4,29.74,North,350,1.0,1.0,74,0.00,,,0.00,Wunderground v.1.13,2013-06-12 03:25:00,
2013-06-11 22:35:00,73.2,64.4,29.74,NNW,348,1.0,1.0,74,0.00,,,0.00,Wunderground v.1.13,2013-06-12 03:35:00,
2013-06-11 22:45:00,73.0,63.8,29.75,NNW,348,0.0,5.0,73,0.00,,,0.00,Wunderground v.1.13,2013-06-12 03:45:00,
2013-06-11 22:55:00,73.0,63.4,29.75,North,349,0.0,5.0,72,0.00,,,0.00,Wunderground v.1.13,2013-06-12 03:55:00,
2013-06-11 23:00:00,73.0,63.4,29.73,North,349,0.0,5.0,72,0.00,,,0.00,Wunderground v.1.13,2013-06-12 04:00:00,
2013-06-11 23:05:00,73.0,63.4,29.73,North,349,0.0,8.0,72,0.00,,,0.00,Wunderground v.1.13,2013-06-12 04:05:00,
2013-06-11 23:10:00,73.0,63.4,29.73,North,349,0.0,8.0,72,0.00,,,0.00,Wunderground v.1.13,2013-06-12 04:10:00,
2013-06-11 23:15:00,73.0,63.4,29.73,North,349,0.0,8.0,72,0.00,,,0.00,Wunderground v.1.13,2013-06-12 04:15:00,
2013-06-11 23:20:00,73.0,63.4,29.73,North,349,0.0,8.0,72,0.00,,,0.00,Wunderground v.1.13,2013-06-12 04:20:00,
2013-06-11 23:25:00,73.0,63.8,29.73,North,349,0.0,8.0,73,0.00,,,0.00,Wunderground v.1.13,2013-06-12 04:25:00,
2013-06-11 23:35:00,72.5,64.1,29.71,North,349,0.0,5.0,75,0.00,,,0.00,Wunderground v.1.13,2013-06-12 04:35:00,
2013-06-11 23:40:00,72.3,64.3,29.71,North,349,0.0,5.0,76,0.00,,,0.00,Wunderground v.1.13,2013-06-12 04:40:00,
2013-06-11 23:50:00,71.8,64.6,29.73,North,349,0.0,5.0,78,0.00,,,0.00,Wunderground v.1.13,2013-06-12 04:50:00,
2013-06-11 23:55:00,71.5,64.6,29.73,North,349,0.0,5.0,79,0.00,,,0.00,Wunderground v.1.13,2013-06-12 04:55:00,